Time;durP1;ratioP1;P1;durP2;ratioP2;P2;SDS_P1;SDS_P2;PMS_P1;PMS_P2;Temp;Humidity;BMP_temperature;BMP_pressure;BME280_temperature;BME280_humidity;BME280_pressure;Samples;Min_cycle;Max_cycle;Signal;HPM_P1;HPM_P2
2023/12/01 00:00:31;;;;;;;25.42;14.88;;;5.00;74.60;;;;;;5023165;28;20107;-61
2023/12/01 00:02:58;;;;;;;21.63;14.68;;;5.00;74.60;;;;;;5026412;28;20041;-61
2023/12/01 00:05:23;;;;;;;21.55;14.02;;;5.00;74.60;;;;;;5027383;28;20494;-62
2023/12/01 00:07:49;;;;;;;24.58;15.15;;;5.00;74.60;;;;;;5022276;28;20025;-61
2023/12/01 00:10:15;;;;;;;20.35;13.30;;;5.00;74.60;;;;;;5025365;28;21276;-61
2023/12/01 00:12:41;;;;;;;20.75;13.65;;;5.00;74.60;;;;;;5027386;28;20036;-61
2023/12/01 00:15:07;;;;;;;18.05;12.73;;;5.00;74.60;;;;;;5024242;28;20468;-61
2023/12/01 00:17:33;;;;;;;19.88;12.52;;;5.00;74.70;;;;;;5023144;28;20103;-60
2023/12/01 00:19:59;;;;;;;21.02;13.30;;;5.00;74.60;;;;;;5025779;28;20041;-62
2023/12/01 00:22:25;;;;;;;19.58;13.00;;;5.00;74.60;;;;;;5026389;28;20017;-61
2023/12/01 00:24:50;;;;;;;21.85;13.40;;;5.00;74.50;;;;;;5026614;28;20099;-61
2023/12/01 00:27:16;;;;;;;21.45;12.82;;;5.10;74.50;;;;;;5027370;28;20154;-62
2023/12/01 00:29:42;;;;;;;16.63;11.57;;;5.10;74.50;;;;;;5022558;28;20045;-61
2023/12/01 00:32:08;;;;;;;20.70;12.85;;;5.10;74.50;;;;;;5025715;28;20056;-61
2023/12/01 00:34:33;;;;;;;18.98;12.95;;;5.10;74.50;;;;;;5029121;28;20045;-61
2023/12/01 00:36:59;;;;;;;18.90;12.70;;;5.10;74.50;;;;;;5025111;28;20471;-60
2023/12/01 00:39:25;;;;;;;19.52;12.55;;;5.10;74.50;;;;;;5039515;28;20038;-61
2023/12/01 00:41:51;;;;;;;21.75;12.60;;;5.10;74.60;;;;;;5025386;28;20508;-61
2023/12/01 00:44:17;;;;;;;20.45;13.07;;;5.10;74.60;;;;;;5024382;28;20036;-62
2023/12/01 00:46:42;;;;;;;21.65;13.73;;;5.10;74.60;;;;;;5036525;28;20034;-62
2023/12/01 00:49:08;;;;;;;20.10;12.57;;;5.10;74.70;;;;;;5025991;28;20035;-61
2023/12/01 00:51:34;;;;;;;22.92;14.10;;;5.10;74.60;;;;;;5026506;28;20035;-62
2023/12/01 00:53:59;;;;;;;22.45;13.88;;;5.10;74.60;;;;;;5022753;28;20101;-61
2023/12/01 00:56:25;;;;;;;21.67;13.85;;;5.10;74.50;;;;;;5023870;28;20116;-62
2023/12/01 00:58:51;;;;;;;20.88;13.45;;;5.10;74.50;;;;;;5024949;28;20065;-60
2023/12/01 01:01:17;;;;;;;20.20;12.95;;;5.10;74.40;;;;;;5024071;28;20037;-62
2023/12/01 01:03:43;;;;;;;20.02;12.77;;;5.10;74.50;;;;;;5025728;28;20025;-63
2023/12/01 01:06:10;;;;;;;20.02;12.82;;;5.10;74.50;;;;;;5026065;28;20121;-62
2023/12/01 01:08:36;;;;;;;19.27;13.30;;;5.10;74.50;;;;;;5026065;28;20033;-61
2023/12/01 01:11:02;;;;;;;20.92;12.98;;;5.10;74.50;;;;;;5025702;28;20500;-60
2023/12/01 01:13:28;;;;;;;18.92;12.65;;;5.10;74.50;;;;;;5025023;28;20045;-62
2023/12/01 01:15:54;;;;;;;20.95;12.88;;;5.10;74.40;;;;;;5024627;28;20021;-61
2023/12/01 01:18:20;;;;;;;19.10;12.30;;;5.10;74.50;;;;;;5021135;28;20033;-60
2023/12/01 01:20:46;;;;;;;18.20;12.15;;;5.10;74.40;;;;;;5025506;28;20044;-61
2023/12/01 01:23:12;;;;;;;19.27;12.23;;;5.10;74.30;;;;;;5031548;28;20038;-61
2023/12/01 01:25:38;;;;;;;18.90;12.73;;;5.10;74.40;;;;;;5025866;28;20091;-61
2023/12/01 01:28:05;;;;;;;20.27;12.48;;;5.10;74.50;;;;;;5024740;28;20053;-61
2023/12/01 01:30:30;;;;;;;21.48;13.30;;;5.10;74.60;;;;;;5040777;28;20016;-61
2023/12/01 01:32:56;;;;;;;19.33;12.63;;;5.10;74.60;;;;;;5063618;28;20045;-62
2023/12/01 01:35:22;;;;;;;18.23;11.60;;;5.00;74.50;;;;;;5050321;28;20021;-63
2023/12/01 01:37:47;;;;;;;17.73;12.40;;;5.00;74.50;;;;;;5048752;28;20034;-62
2023/12/01 01:40:14;;;;;;;18.85;12.35;;;5.00;74.60;;;;;;5043771;28;20105;-61
2023/12/01 01:42:39;;;;;;;19.30;12.70;;;5.00;74.60;;;;;;5024835;28;20699;-61
2023/12/01 01:45:06;;;;;;;19.73;12.57;;;5.00;74.60;;;;;;5022934;28;20056;-61
2023/12/01 01:47:35;;;;;;;19.77;12.73;;;5.00;74.70;;;;;;4977817;28;20025;-60
2023/12/01 01:50:06;;;;;;;18.00;12.70;;;5.00;74.80;;;;;;5026506;28;20025;-61
2023/12/01 01:52:35;;;;;;;18.70;12.90;;;5.00;74.80;;;;;;5026778;28;20252;-60
2023/12/01 01:55:01;;;;;;;18.17;12.63;;;5.00;74.80;;;;;;5024271;28;20029;-61
2023/12/01 01:57:28;;;;;;;22.52;12.40;;;5.00;74.80;;;;;;5025048;28;20028;-60
2023/12/01 01:59:54;;;;;;;19.48;13.27;;;5.10;74.90;;;;;;5021240;28;20132;-61
2023/12/01 02:02:20;;;;;;;20.92;13.10;;;5.00;74.80;;;;;;5024943;28;20130;-60
2023/12/01 02:04:45;;;;;;;23.63;13.32;;;5.00;74.80;;;;;;5023016;28;20033;-61
2023/12/01 02:07:25;;;;;;;20.73;13.48;;;5.10;74.80;;;;;;5024210;28;20037;-62
2023/12/01 02:09:50;;;;;;;20.52;13.15;;;5.10;74.90;;;;;;5021899;28;20676;-61
2023/12/01 02:12:16;;;;;;;21.23;13.55;;;5.10;74.70;;;;;;5022846;28;20040;-61
2023/12/01 02:14:42;;;;;;;19.38;13.25;;;5.10;74.70;;;;;;5023697;28;20037;-61
2023/12/01 02:17:07;;;;;;;18.55;12.73;;;5.10;74.70;;;;;;5023103;28;20048;-62
2023/12/01 02:19:33;;;;;;;20.42;13.32;;;5.10;74.70;;;;;;5023875;28;20033;-61
2023/12/01 02:21:59;;;;;;;21.90;13.25;;;5.10;74.70;;;;;;5024625;28;20026;-61
2023/12/01 02:24:24;;;;;;;22.58;14.40;;;5.00;74.60;;;;;;5025314;28;20078;-60
2023/12/01 02:26:50;;;;;;;20.00;13.07;;;5.10;74.70;;;;;;5028797;28;20136;-61
2023/12/01 02:29:16;;;;;;;20.33;13.38;;;5.10;74.60;;;;;;5024077;28;20462;-61
2023/12/01 02:31:41;;;;;;;21.30;13.98;;;5.00;74.50;;;;;;5024035;28;20033;-60
2023/12/01 02:34:07;;;;;;;22.77;14.18;;;5.00;74.60;;;;;;5024448;28;20030;-60
2023/12/01 02:36:33;;;;;;;21.67;14.07;;;5.00;74.70;;;;;;5024551;28;20025;-61
2023/12/01 02:38:58;;;;;;;23.20;14.30;;;5.00;74.80;;;;;;5028403;28;20143;-61
2023/12/01 02:41:24;;;;;;;22.25;14.38;;;5.00;74.80;;;;;;5024393;28;20128;-60
2023/12/01 02:43:49;;;;;;;22.38;13.73;;;5.00;74.80;;;;;;5022379;28;20041;-60
2023/12/01 02:46:15;;;;;;;20.55;13.68;;;5.00;74.80;;;;;;4969845;28;20532;-61
2023/12/01 02:48:41;;;;;;;22.83;15.00;;;5.00;74.80;;;;;;5027132;28;20025;-61
2023/12/01 02:51:07;;;;;;;21.65;13.82;;;5.00;74.80;;;;;;5029031;28;20021;-61
2023/12/01 02:53:34;;;;;;;22.67;14.32;;;5.10;74.90;;;;;;5028142;28;20036;-61
2023/12/01 02:56:00;;;;;;;24.08;15.10;;;5.00;74.80;;;;;;5029367;28;20029;-61
2023/12/01 02:58:26;;;;;;;23.73;14.90;;;5.10;74.90;;;;;;5044106;28;20037;-62
2023/12/01 03:00:52;;;;;;;21.20;13.68;;;5.10;74.90;;;;;;5025197;28;20488;-60
2023/12/01 03:03:18;;;;;;;20.50;14.40;;;5.10;74.80;;;;;;5022991;28;20032;-60
2023/12/01 03:05:43;;;;;;;20.95;14.57;;;5.10;74.90;;;;;;5027289;28;20488;-61
2023/12/01 03:08:09;;;;;;;20.70;13.73;;;5.10;74.90;;;;;;5024217;28;20034;-60
2023/12/01 03:10:35;;;;;;;23.83;15.18;;;5.10;74.90;;;;;;5025810;28;20457;-60
2023/12/01 03:13:01;;;;;;;23.23;14.75;;;5.10;74.90;;;;;;5027155;28;20025;-61
2023/12/01 03:15:29;;;;;;;23.35;15.38;;;5.10;74.80;;;;;;5026814;28;20044;-61
2023/12/01 03:17:55;;;;;;;24.75;15.70;;;5.10;74.80;;;;;;5028512;28;20029;-61
2023/12/01 03:20:21;;;;;;;24.05;14.93;;;5.10;74.80;;;;;;5027221;28;20033;-61
2023/12/01 03:22:50;;;;;;;22.38;14.80;;;5.10;74.80;;;;;;5027621;28;20033;-61
2023/12/01 03:25:17;;;;;;;21.05;14.05;;;5.00;74.80;;;;;;5031704;28;20033;-61
2023/12/01 03:27:44;;;;;;;21.30;14.30;;;5.00;74.80;;;;;;5026959;28;20457;-61
2023/12/01 03:30:14;;;;;;;23.40;15.63;;;5.00;74.90;;;;;;5026605;28;20570;-61
2023/12/01 03:32:46;;;;;;;25.30;15.23;;;5.00;75.00;;;;;;5026143;28;20033;-61
2023/12/01 03:35:17;;;;;;;25.85;15.32;;;5.00;74.90;;;;;;5025395;28;20786;-61
2023/12/01 03:37:44;;;;;;;22.75;14.50;;;5.00;75.00;;;;;;5023389;28;20022;-61
2023/12/01 03:40:12;;;;;;;21.98;14.45;;;5.10;75.00;;;;;;5027336;28;20045;-61
2023/12/01 03:42:41;;;;;;;22.23;15.00;;;5.10;75.00;;;;;;5027741;28;20455;-61
2023/12/01 03:45:10;;;;;;;22.92;14.75;;;5.10;75.00;;;;;;5029008;28;20030;-61
2023/12/01 03:47:38;;;;;;;22.58;14.35;;;5.10;74.90;;;;;;5029375;28;20040;-62
2023/12/01 03:50:03;;;;;;;21.50;14.30;;;5.10;74.90;;;;;;5026901;28;20078;-60
2023/12/01 03:52:30;;;;;;;25.08;14.82;;;5.10;74.90;;;;;;5027045;28;20157;-61
2023/12/01 03:54:58;;;;;;;23.92;14.55;;;5.10;74.90;;;;;;5026810;28;20025;-61
2023/12/01 03:57:27;;;;;;;22.48;14.65;;;5.10;74.90;;;;;;5026473;28;20022;-61
2023/12/01 03:59:55;;;;;;;20.27;13.85;;;5.10;74.90;;;;;;5025990;28;20038;-61
2023/12/01 04:02:24;;;;;;;19.13;13.20;;;5.10;75.00;;;;;;5025582;28;20167;-61
2023/12/01 04:04:50;;;;;;;25.67;14.73;;;5.10;75.00;;;;;;5026480;28;20018;-62
2023/12/01 04:07:16;;;;;;;24.85;15.10;;;5.10;75.00;;;;;;5026720;28;20059;-61
2023/12/01 04:09:41;;;;;;;23.60;15.23;;;5.10;75.00;;;;;;5027178;28;20365;-62
2023/12/01 04:12:07;;;;;;;25.73;15.82;;;5.10;75.00;;;;;;5025590;28;20053;-60
2023/12/01 04:14:33;;;;;;;26.60;15.18;;;5.10;75.00;;;;;;5026023;28;20034;-60
2023/12/01 04:17:08;;;;;;;25.23;15.90;;;5.10;75.00;;;;;;5024978;28;20029;-62
2023/12/01 04:19:35;;;;;;;24.33;14.80;;;5.10;75.00;;;;;;5024650;28;20488;-61
2023/12/01 04:22:02;;;;;;;24.88;14.43;;;5.10;75.20;;;;;;5026166;28;20040;-62
2023/12/01 04:24:28;;;;;;;23.40;14.82;;;5.10;75.10;;;;;;5026141;28;20762;-61
2023/12/01 04:26:54;;;;;;;21.77;14.70;;;5.10;75.10;;;;;;5025400;28;20074;-61
2023/12/01 04:29:20;;;;;;;23.88;14.40;;;5.10;75.10;;;;;;5025533;28;20045;-63
2023/12/01 04:31:45;;;;;;;21.73;13.85;;;5.10;75.10;;;;;;5026126;28;20018;-62
2023/12/01 04:34:11;;;;;;;21.60;13.98;;;5.10;75.10;;;;;;5025764;28;20622;-61
2023/12/01 04:36:37;;;;;;;23.40;14.10;;;5.10;75.20;;;;;;5024188;28;20111;-61
2023/12/01 04:39:04;;;;;;;23.40;14.35;;;5.00;75.10;;;;;;5025172;28;20028;-60
2023/12/01 04:41:29;;;;;;;30.80;17.40;;;5.10;75.10;;;;;;5026193;28;20442;-62
2023/12/01 04:43:56;;;;;;;40.95;18.42;;;5.10;75.10;;;;;;5025782;28;20017;-61
2023/12/01 04:46:21;;;;;;;36.70;19.42;;;5.10;75.10;;;;;;4944809;28;20950;-62
2023/12/01 04:48:47;;;;;;;36.05;19.50;;;5.10;75.10;;;;;;5027091;28;20022;-62
2023/12/01 04:51:12;;;;;;;34.90;18.23;;;5.10;75.20;;;;;;5025849;28;20033;-60
2023/12/01 04:53:38;;;;;;;32.28;17.63;;;5.10;75.30;;;;;;5025700;28;20033;-62
2023/12/01 04:56:04;;;;;;;33.20;18.45;;;5.10;75.30;;;;;;5025957;28;20049;-61
2023/12/01 04:58:30;;;;;;;31.10;17.42;;;5.10;75.30;;;;;;5025600;28;20481;-61
2023/12/01 05:00:56;;;;;;;31.02;18.25;;;5.10;75.20;;;;;;5023336;28;20495;-60
2023/12/01 05:03:21;;;;;;;33.17;17.15;;;5.10;75.20;;;;;;5023103;28;20034;-61
2023/12/01 05:05:47;;;;;;;30.17;17.75;;;5.10;75.30;;;;;;5026077;28;20032;-62
2023/12/01 05:08:13;;;;;;;24.88;15.82;;;5.10;75.30;;;;;;5025697;28;20135;-61
2023/12/01 05:10:44;;;;;;;30.75;17.17;;;5.10;75.20;;;;;;5022793;28;20045;-61
2023/12/01 05:13:11;;;;;;;27.58;16.35;;;5.10;75.20;;;;;;5024553;28;20524;-62
2023/12/01 05:15:37;;;;;;;27.33;16.40;;;5.10;75.20;;;;;;5024472;28;20018;-61
2023/12/01 05:18:07;;;;;;;25.73;15.57;;;5.10;75.10;;;;;;5023729;28;20037;-61
2023/12/01 05:20:33;;;;;;;27.42;15.88;;;5.10;75.20;;;;;;5024638;28;20094;-61
2023/12/01 05:23:00;;;;;;;25.55;15.57;;;5.10;75.10;;;;;;5024384;28;20035;-61
2023/12/01 05:25:32;;;;;;;26.33;16.30;;;5.10;75.10;;;;;;5024967;28;20107;-61
2023/12/01 05:27:59;;;;;;;25.20;15.43;;;5.10;75.30;;;;;;5022502;28;20041;-61
2023/12/01 05:30:30;;;;;;;25.15;15.80;;;5.10;75.30;;;;;;5022518;28;20021;-61
2023/12/01 05:33:00;;;;;;;26.95;15.68;;;5.10;75.30;;;;;;5024514;28;20025;-61
2023/12/01 05:35:26;;;;;;;26.25;15.93;;;5.10;75.20;;;;;;5024439;28;20033;-60
2023/12/01 05:37:54;;;;;;;28.25;16.15;;;5.10;75.20;;;;;;5024981;28;20026;-61
2023/12/01 05:40:25;;;;;;;25.17;15.32;;;5.10;75.20;;;;;;5022772;28;20854;-62
2023/12/01 05:42:54;;;;;;;24.33;15.55;;;5.10;75.20;;;;;;5033679;28;20036;-61
2023/12/01 05:45:22;;;;;;;26.67;16.40;;;5.10;75.20;;;;;;4936779;28;20616;-62
2023/12/01 05:47:50;;;;;;;28.02;16.40;;;5.10;75.10;;;;;;5025289;28;20029;-61
2023/12/01 05:50:28;;;;;;;29.58;17.52;;;5.10;75.10;;;;;;5024313;28;20027;-62
2023/12/01 05:52:56;;;;;;;26.85;16.88;;;5.10;75.20;;;;;;5029329;28;20132;-61
2023/12/01 05:55:26;;;;;;;28.85;17.33;;;5.10;75.30;;;;;;5024712;28;20026;-60
2023/12/01 05:57:57;;;;;;;28.27;16.80;;;5.10;75.20;;;;;;5027363;28;20333;-60
2023/12/01 06:00:29;;;;;;;31.10;17.75;;;5.10;75.30;;;;;;5023528;28;20064;-61
2023/12/01 06:02:55;;;;;;;29.33;17.35;;;5.10;75.20;;;;;;5022915;28;20077;-60
2023/12/01 06:05:21;;;;;;;32.05;18.15;;;5.10;75.20;;;;;;5024589;28;20095;-61
2023/12/01 06:07:52;;;;;;;29.35;17.08;;;5.10;75.20;;;;;;5024690;28;20022;-60
2023/12/01 06:10:18;;;;;;;31.23;18.67;;;5.10;75.30;;;;;;5024389;28;20048;-62
2023/12/01 06:12:44;;;;;;;29.75;18.23;;;5.10;75.20;;;;;;5024798;28;20079;-61
2023/12/01 06:15:15;;;;;;;43.10;22.50;;;5.10;75.20;;;;;;5025231;28;20559;-61
2023/12/01 06:17:43;;;;;;;45.83;23.92;;;5.10;75.30;;;;;;5023095;28;20519;-61
2023/12/01 06:20:17;;;;;;;41.03;22.92;;;5.10;75.30;;;;;;5021428;28;20040;-60
2023/12/01 06:22:47;;;;;;;40.97;22.17;;;5.10;75.30;;;;;;5026289;28;20029;-61
2023/12/01 06:25:14;;;;;;;38.20;21.40;;;5.10;75.30;;;;;;5029377;28;20025;-60
2023/12/01 06:27:40;;;;;;;35.55;20.40;;;5.10;75.30;;;;;;5025385;28;20053;-61
2023/12/01 06:30:12;;;;;;;38.00;20.48;;;5.10;75.30;;;;;;5029023;28;20021;-61
2023/12/01 06:32:43;;;;;;;46.20;20.98;;;5.10;75.50;;;;;;5028132;28;20029;-60
2023/12/01 06:35:13;;;;;;;33.58;18.65;;;5.10;75.40;;;;;;5028208;28;20095;-62
2023/12/01 06:37:39;;;;;;;27.42;16.20;;;5.10;75.30;;;;;;5028170;28;20021;-62
2023/12/01 06:40:12;;;;;;;25.20;15.18;;;5.10;75.20;;;;;;5025582;28;20045;-61
2023/12/01 06:42:51;;;;;;;20.23;12.65;;;5.10;75.30;;;;;;5028022;28;20373;-60
2023/12/01 06:45:18;;;;;;;19.52;12.68;;;5.10;75.30;;;;;;4936607;28;20152;-60
2023/12/01 06:47:47;;;;;;;20.63;13.18;;;5.10;75.40;;;;;;5026983;28;20030;-64
2023/12/01 06:50:15;;;;;;;19.52;12.57;;;5.10;75.40;;;;;;5026337;28;20029;-63
2023/12/01 06:52:49;;;;;;;18.98;11.85;;;5.10;75.40;;;;;;5028682;28;20022;-64
2023/12/01 06:55:15;;;;;;;;;;;5.10;75.60;;;;;;5027409;28;20022;-63
2023/12/01 06:57:43;;;;;;;18.90;11.05;;;5.20;75.90;;;;;;5027809;28;20365;-64
2023/12/01 07:00:29;;;;;;;20.80;12.40;;;5.20;75.20;;;;;;5028431;28;20037;-62
2023/12/01 07:02:56;;;;;;;20.35;12.70;;;5.20;75.30;;;;;;5027536;28;20025;-63
2023/12/01 07:05:23;;;;;;;24.05;13.48;;;5.20;75.30;;;;;;5027473;28;20104;-62
2023/12/01 07:07:48;;;;;;;20.00;11.77;;;5.20;75.40;;;;;;5027966;28;21405;-62
2023/12/01 07:10:15;;;;;;;24.08;11.88;;;5.20;75.40;;;;;;5027286;28;20030;-62
2023/12/01 07:12:40;;;;;;;19.25;12.25;;;5.20;75.40;;;;;;5026526;28;20025;-63
2023/12/01 07:15:11;;;;;;;19.60;12.05;;;5.20;75.30;;;;;;5028446;28;20126;-63
2023/12/01 07:17:38;;;;;;;18.27;11.65;;;5.20;75.30;;;;;;5024108;28;20032;-62
2023/12/01 07:20:13;;;;;;;19.02;11.57;;;5.30;75.40;;;;;;5028839;28;20135;-62
2023/12/01 07:22:40;;;;;;;20.38;11.60;;;5.30;75.40;;;;;;5024239;28;20025;-63
2023/12/01 07:25:10;;;;;;;21.33;12.02;;;5.30;75.30;;;;;;5028011;28;20044;-63
2023/12/01 07:27:39;;;;;;;21.23;12.13;;;5.30;75.30;;;;;;5025676;28;20081;-63
2023/12/01 07:30:06;;;;;;;18.92;10.70;;;5.30;75.20;;;;;;5027106;28;22059;-63
2023/12/01 07:32:33;;;;;;;20.63;11.85;;;5.30;75.10;;;;;;5041313;28;20056;-63
2023/12/01 07:34:58;;;;;;;18.23;12.27;;;5.30;75.20;;;;;;5026396;28;20053;-62
2023/12/01 07:37:24;;;;;;;15.73;10.75;;;5.30;75.20;;;;;;5027512;28;20068;-63
2023/12/01 07:39:49;;;;;;;20.55;10.68;;;5.40;75.20;;;;;;5026972;28;20391;-63
2023/12/01 07:42:16;;;;;;;18.25;11.35;;;5.40;75.20;;;;;;5025997;28;20041;-64
2023/12/01 07:44:42;;;;;;;18.33;11.35;;;5.40;75.20;;;;;;5026465;28;20022;-62
2023/12/01 07:47:11;;;;;;;15.65;10.57;;;5.40;75.30;;;;;;4952087;28;20044;-63
2023/12/01 07:49:37;;;;;;;17.20;10.90;;;5.40;75.30;;;;;;5025850;28;20494;-63
2023/12/01 07:52:06;;;;;;;18.15;11.65;;;5.50;75.30;;;;;;5024207;28;20026;-61
2023/12/01 07:54:33;;;;;;;16.65;11.02;;;5.50;75.30;;;;;;5026930;28;20454;-62
2023/12/01 07:56:58;;;;;;;18.25;11.48;;;5.50;75.20;;;;;;5026501;28;20036;-63
2023/12/01 07:59:24;;;;;;;17.48;11.40;;;5.50;75.10;;;;;;5024995;28;20029;-63
2023/12/01 08:01:50;;;;;;;16.35;11.32;;;5.60;75.20;;;;;;5025763;28;20112;-62
2023/12/01 08:04:15;;;;;;;19.88;11.80;;;5.60;75.00;;;;;;5037816;28;20559;-63
2023/12/01 08:06:41;;;;;;;20.58;11.57;;;5.60;75.00;;;;;;5026611;28;20021;-63
2023/12/01 08:09:07;;;;;;;18.38;10.95;;;5.60;75.00;;;;;;5024719;28;20065;-63
2023/12/01 08:11:32;;;;;;;20.83;11.98;;;5.70;74.90;;;;;;5026024;28;20134;-62
2023/12/01 08:13:58;;;;;;;18.42;11.68;;;5.70;74.80;;;;;;5026098;28;20067;-62
2023/12/01 08:16:24;;;;;;;19.17;11.95;;;5.70;74.80;;;;;;5024702;28;20064;-62
2023/12/01 08:18:49;;;;;;;22.42;13.45;;;5.70;74.70;;;;;;5039100;28;20025;-63
2023/12/01 08:21:15;;;;;;;18.73;13.38;;;5.80;74.70;;;;;;5024610;28;20042;-63
2023/12/01 08:23:40;;;;;;;21.63;13.85;;;5.80;74.70;;;;;;5025136;28;20166;-63
2023/12/01 08:26:09;;;;;;;23.17;14.65;;;5.80;74.80;;;;;;5024122;28;20540;-64
2023/12/01 08:28:34;;;;;;;28.15;16.55;;;5.80;74.70;;;;;;5025226;28;20068;-62
2023/12/01 08:31:00;;;;;;;30.83;19.77;;;5.90;74.80;;;;;;5024337;28;20512;-63
2023/12/01 08:33:25;;;;;;;28.92;17.88;;;5.90;74.80;;;;;;5026486;28;20032;-64
2023/12/01 08:35:51;;;;;;;25.90;18.02;;;5.90;74.70;;;;;;5025000;28;20306;-62
2023/12/01 08:38:17;;;;;;;26.70;18.33;;;6.00;74.60;;;;;;5024802;28;20104;-64
2023/12/01 08:40:43;;;;;;;27.88;17.50;;;6.00;74.40;;;;;;5025202;28;20037;-63
2023/12/01 08:43:08;;;;;;;23.50;14.77;;;6.10;74.40;;;;;;5024633;28;20030;-64
2023/12/01 08:45:34;;;;;;;23.30;14.07;;;6.10;74.20;;;;;;5023620;28;20021;-65
2023/12/01 08:48:00;;;;;;;18.92;12.32;;;6.10;74.00;;;;;;5024313;28;20021;-64
2023/12/01 08:50:26;;;;;;;19.77;13.48;;;6.10;73.90;;;;;;5024677;28;20029;-64
2023/12/01 08:52:53;;;;;;;19.67;13.00;;;6.10;73.80;;;;;;5024625;28;20030;-63
2023/12/01 08:55:19;;;;;;;19.30;13.77;;;6.20;73.80;;;;;;5023865;28;20106;-63
2023/12/01 08:57:44;;;;;;;22.40;13.93;;;6.10;73.80;;;;;;5024741;28;20022;-66
2023/12/01 09:00:12;;;;;;;19.95;13.15;;;6.20;73.80;;;;;;5024345;28;20034;-64
2023/12/01 09:02:37;;;;;;;23.20;13.45;;;6.20;73.90;;;;;;5025151;28;20365;-64
2023/12/01 09:05:04;;;;;;;20.65;13.38;;;6.20;73.90;;;;;;5025392;28;20132;-64
2023/12/01 09:07:29;;;;;;;20.58;13.32;;;6.20;73.90;;;;;;5024680;28;20040;-65
2023/12/01 09:09:55;;;;;;;21.42;13.40;;;6.20;73.80;;;;;;5024576;28;20026;-66
2023/12/01 09:12:21;;;;;;;19.80;13.15;;;6.20;73.70;;;;;;5023968;28;20041;-65
2023/12/01 09:14:46;;;;;;;18.00;12.63;;;6.30;73.70;;;;;;5024447;28;20029;-64
2023/12/01 09:17:14;;;;;;;23.25;13.65;;;6.30;73.60;;;;;;5023849;28;20507;-66
2023/12/01 09:19:40;;;;;;;21.23;13.48;;;6.30;73.60;;;;;;5024488;28;20033;-64
2023/12/01 09:22:06;;;;;;;20.73;12.73;;;6.30;73.70;;;;;;5024967;28;20091;-65
2023/12/01 09:24:32;;;;;;;21.02;12.48;;;6.30;73.70;;;;;;5025222;28;20017;-65
2023/12/01 09:26:57;;;;;;;20.02;13.35;;;6.30;73.70;;;;;;5023577;28;20026;-65
2023/12/01 09:29:23;;;;;;;22.52;14.60;;;6.40;73.70;;;;;;5022819;28;20746;-64
2023/12/01 09:31:49;;;;;;;20.92;13.82;;;6.40;73.50;;;;;;5022644;28;20026;-64
2023/12/01 09:34:14;;;;;;;21.08;12.40;;;6.50;73.40;;;;;;5024170;28;20025;-64
2023/12/01 09:36:43;;;;;;;17.05;11.32;;;6.50;73.40;;;;;;5023370;28;20041;-65
2023/12/01 09:39:09;;;;;;;15.50;10.82;;;6.50;73.20;;;;;;5024813;28;20566;-65
2023/12/01 09:41:36;;;;;;;16.73;10.40;;;6.50;73.20;;;;;;5025419;28;20045;-65
2023/12/01 09:44:03;;;;;;;17.60;11.15;;;6.60;73.30;;;;;;5022479;28;20028;-63
2023/12/01 09:46:35;;;;;;;13.93;9.32;;;6.60;73.30;;;;;;5022985;28;20022;-66
2023/12/01 09:49:05;;;;;;;16.42;9.50;;;6.60;73.30;;;;;;5023744;28;20021;-66
2023/12/01 09:51:36;;;;;;;16.02;10.02;;;6.70;73.30;;;;;;5024680;28;20018;-65
2023/12/01 09:54:03;;;;;;;18.95;9.13;;;6.70;73.10;;;;;;5023367;28;20033;-65
2023/12/01 09:56:30;;;;;;;14.60;9.80;;;6.70;73.00;;;;;;5025025;28;20021;-66
2023/12/01 09:58:56;;;;;;;15.95;9.15;;;6.80;72.90;;;;;;5030594;28;20412;-66
2023/12/01 10:01:23;;;;;;;15.68;9.30;;;6.80;72.70;;;;;;5029902;28;20033;-66
2023/12/01 10:03:48;;;;;;;14.18;8.77;;;6.90;72.60;;;;;;5030009;28;20018;-65
2023/12/01 10:06:14;;;;;;;12.73;8.35;;;6.80;72.40;;;;;;5031831;28;20400;-65
2023/12/01 10:08:40;;;;;;;13.55;8.75;;;6.90;72.20;;;;;;5030907;28;20116;-66
2023/12/01 10:11:26;;;;;;;12.50;8.75;;;6.80;72.10;;;;;;5026893;28;20030;-66
2023/12/01 10:13:52;;;;;;;11.93;8.50;;;6.80;71.90;;;;;;5029519;28;20096;-65
2023/12/01 10:16:19;;;;;;;14.15;8.65;;;6.80;72.10;;;;;;5031275;28;20175;-65
2023/12/01 10:19:04;;;;;;;14.32;9.20;;;6.80;72.10;;;;;;5031714;28;20091;-65
2023/12/01 10:21:44;;;;;;;16.70;11.73;;;6.80;72.00;;;;;;5030481;28;20368;-66
2023/12/01 10:24:20;;;;;;;14.93;10.05;;;6.70;72.00;;;;;;5030500;28;20370;-65
2023/12/01 10:26:47;;;;;;;14.65;10.35;;;6.70;72.00;;;;;;5028961;28;20036;-66
2023/12/01 10:29:32;;;;;;;18.85;11.68;;;6.70;72.10;;;;;;5030170;28;20116;-65
2023/12/01 10:32:02;;;;;;;15.77;11.77;;;6.60;71.90;;;;;;5029790;28;20021;-66
2023/12/01 10:34:28;;;;;;;15.50;10.77;;;6.60;72.00;;;;;;5027917;28;20037;-66
2023/12/01 10:36:55;;;;;;;19.42;12.65;;;6.60;72.10;;;;;;5029646;28;20075;-65
2023/12/01 10:39:27;;;;;;;16.38;11.27;;;6.60;72.10;;;;;;5030715;28;20083;-66
2023/12/01 10:41:55;;;;;;;15.98;11.80;;;6.60;72.80;;;;;;5029361;28;20034;-64
2023/12/01 10:44:25;;;;;;;19.92;12.48;;;6.60;72.30;;;;;;5042903;28;20051;-65
2023/12/01 10:47:06;;;;;;;17.58;12.40;;;6.60;72.30;;;;;;5028794;28;20029;-65
2023/12/01 10:49:34;;;;;;;17.98;11.55;;;6.90;72.40;;;;;;5028791;28;20017;-66
2023/12/01 10:52:00;;;;;;;16.35;11.80;;;6.60;72.30;;;;;;5030819;28;20021;-66
2023/12/01 10:54:27;;;;;;;20.88;13.00;;;6.60;72.20;;;;;;5031616;28;20106;-64
2023/12/01 10:57:27;;;;;;;18.63;13.30;;;6.60;72.30;;;;;;5029469;28;20032;-66
2023/12/01 10:59:58;;;;;;;17.30;12.77;;;6.50;72.10;;;;;;5029329;28;20033;-65
2023/12/01 11:02:25;;;;;;;15.07;10.93;;;6.60;72.30;;;;;;5028543;28;20025;-65
2023/12/01 11:04:51;;;;;;;17.15;11.68;;;6.60;72.30;;;;;;5029906;28;20021;-66
2023/12/01 11:07:54;;;;;;;19.73;13.20;;;6.60;72.30;;;;;;5028839;28;20041;-64
2023/12/01 11:10:34;;;;;;;119.70;43.80;;;6.60;72.00;;;;;;5024138;28;20036;-65
2023/12/01 11:13:20;;;;;;;52.88;26.42;;;6.60;72.00;;;;;;5024111;28;20079;-66
2023/12/01 11:15:49;;;;;;;28.83;17.50;;;6.60;72.10;;;;;;5026649;28;20037;-64
2023/12/01 11:18:16;;;;;;;28.13;15.25;;;6.60;72.80;;;;;;5026757;28;20353;-66
2023/12/01 11:20:43;;;;;;;25.58;14.85;;;6.60;72.20;;;;;;5027441;28;20037;-67
2023/12/01 11:23:08;;;;;;;23.33;14.70;;;6.60;72.20;;;;;;5026671;28;20033;-66
2023/12/01 11:25:48;;;;;;;20.48;14.07;;;6.60;72.10;;;;;;5027889;28;20076;-66
2023/12/01 11:28:45;;;;;;;18.52;12.52;;;6.60;72.10;;;;;;5025005;28;20059;-66
2023/12/01 11:33:49;;;;;;;17.02;10.50;;;6.50;72.70;;;;;;5028221;28;20025;-67
2023/12/01 11:36:25;;;;;;;13.27;10.38;;;6.50;72.20;;;;;;5026697;28;20127;-64
2023/12/01 11:39:20;;;;;;;24.00;12.40;;;6.50;72.20;;;;;;5026656;28;20668;-65
2023/12/01 11:41:47;;;;;;;14.02;9.88;;;6.60;72.90;;;;;;5025592;28;20034;-66
2023/12/01 11:44:18;;;;;;;15.07;10.30;;;6.60;72.30;;;;;;5026609;28;20543;-66
2023/12/01 11:46:47;;;;;;;11.95;8.85;;;6.60;72.20;;;;;;4941274;28;20144;-66
2023/12/01 11:49:14;;;;;;;11.82;8.55;;;6.60;72.20;;;;;;5024640;28;20025;-66
2023/12/01 11:51:43;;;;;;;14.38;9.98;;;6.60;72.10;;;;;;5027000;28;20453;-67
2023/12/01 11:54:11;;;;;;;13.70;9.82;;;6.60;72.10;;;;;;5026579;28;20079;-67
2023/12/01 11:56:38;;;;;;;13.35;8.93;;;6.60;72.10;;;;;;5028096;28;20030;-66
2023/12/01 11:59:08;;;;;;;12.38;8.75;;;6.60;72.00;;;;;;5026935;28;20025;-66
2023/12/01 12:01:33;;;;;;;11.20;8.75;;;6.60;72.00;;;;;;5026969;28;20041;-67
2023/12/01 12:03:59;;;;;;;12.25;8.55;;;6.60;71.90;;;;;;5025216;28;20647;-66
2023/12/01 12:06:25;;;;;;;11.95;8.35;;;6.60;71.90;;;;;;5026656;28;20404;-66
2023/12/01 12:08:54;;;;;;;11.65;7.93;;;6.50;71.90;;;;;;5022472;28;20024;-65
2023/12/01 12:11:20;;;;;;;10.40;7.88;;;6.50;72.00;;;;;;5026218;28;20570;-65
2023/12/01 12:13:57;;;;;;;9.75;7.90;;;6.50;72.00;;;;;;5026222;28;20419;-67
2023/12/01 12:16:24;;;;;;;12.13;8.32;;;6.50;71.90;;;;;;5025755;28;20095;-67
2023/12/01 12:18:50;;;;;;;12.15;8.20;;;6.50;72.00;;;;;;5024381;28;20040;-67
2023/12/01 12:21:16;;;;;;;31.05;18.40;;;6.40;71.90;;;;;;5025639;28;20063;-66
2023/12/01 12:23:42;;;;;;;17.48;10.70;;;6.40;71.90;;;;;;5027784;28;20017;-66
2023/12/01 12:26:18;;;;;;;11.23;7.72;;;6.40;71.90;;;;;;5026305;28;20100;-66
2023/12/01 12:28:47;;;;;;;13.20;8.18;;;6.40;71.90;;;;;;5021503;28;20136;-67
2023/12/01 12:31:14;;;;;;;12.48;8.57;;;6.40;72.00;;;;;;5026210;28;20412;-67
2023/12/01 12:33:40;;;;;;;12.63;8.43;;;6.40;72.00;;;;;;5026146;28;20084;-67
2023/12/01 12:36:06;;;;;;;13.07;8.10;;;6.30;72.00;;;;;;5024825;28;20029;-66
2023/12/01 12:38:35;;;;;;;9.85;7.10;;;6.40;72.10;;;;;;5024591;28;20068;-66
2023/12/01 12:41:04;;;;;;;10.75;8.38;;;6.30;72.00;;;;;;5024393;28;20053;-66
2023/12/01 12:43:30;;;;;;;10.82;7.32;;;6.30;72.00;;;;;;5025744;28;20104;-65